sensor_id;sensor_type;location;lat;lon;timestamp;P1;durP1;ratioP1;P2;durP2;ratioP2
12363;SDS011;6246;50.826;4.712;2023-09-30T00:01:46;3.17;;;1.50;;
12363;SDS011;6246;50.826;4.712;2023-09-30T00:04:13;4.70;;;1.50;;
12363;SDS011;6246;50.826;4.712;2023-09-30T00:06:39;1.90;;;1.30;;
12363;SDS011;6246;50.826;4.712;2023-09-30T00:09:05;2.40;;;1.60;;
12363;SDS011;6246;50.826;4.712;2023-09-30T00:11:32;1.60;;;1.20;;
12363;SDS011;6246;50.826;4.712;2023-09-30T00:13:58;2.20;;;1.43;;
12363;SDS011;6246;50.826;4.712;2023-09-30T00:16:24;3.47;;;1.47;;
12363;SDS011;6246;50.826;4.712;2023-09-30T00:18:50;3.87;;;1.27;;
12363;SDS011;6246;50.826;4.712;2023-09-30T00:21:19;2.50;;;1.90;;
12363;SDS011;6246;50.826;4.712;2023-09-30T00:23:45;1.50;;;1.20;;
12363;SDS011;6246;50.826;4.712;2023-09-30T00:26:11;3.67;;;1.23;;
12363;SDS011;6246;50.826;4.712;2023-09-30T00:28:37;3.30;;;1.50;;
12363;SDS011;6246;50.826;4.712;2023-09-30T00:31:06;1.70;;;1.27;;
12363;SDS011;6246;50.826;4.712;2023-09-30T00:33:34;1.97;;;1.30;;
12363;SDS011;6246;50.826;4.712;2023-09-30T00:36:05;1.97;;;1.30;;
12363;SDS011;6246;50.826;4.712;2023-09-30T00:38:31;1.50;;;1.07;;
12363;SDS011;6246;50.826;4.712;2023-09-30T00:40:57;4.00;;;1.50;;
12363;SDS011;6246;50.826;4.712;2023-09-30T00:43:22;1.40;;;1.20;;
12363;SDS011;6246;50.826;4.712;2023-09-30T00:45:49;2.37;;;1.87;;
12363;SDS011;6246;50.826;4.712;2023-09-30T00:48:17;3.07;;;1.50;;
12363;SDS011;6246;50.826;4.712;2023-09-30T00:50:43;1.13;;;1.03;;
12363;SDS011;6246;50.826;4.712;2023-09-30T00:53:09;2.43;;;1.03;;
12363;SDS011;6246;50.826;4.712;2023-09-30T00:55:36;2.40;;;1.33;;
12363;SDS011;6246;50.826;4.712;2023-09-30T00:58:02;1.87;;;1.53;;
12363;SDS011;6246;50.826;4.712;2023-09-30T01:00:28;1.63;;;1.53;;
12363;SDS011;6246;50.826;4.712;2023-09-30T01:02:54;1.30;;;1.20;;
12363;SDS011;6246;50.826;4.712;2023-09-30T01:05:21;1.93;;;1.20;;
12363;SDS011;6246;50.826;4.712;2023-09-30T01:07:47;1.97;;;1.37;;
12363;SDS011;6246;50.826;4.712;2023-09-30T01:10:13;2.40;;;1.37;;
12363;SDS011;6246;50.826;4.712;2023-09-30T01:12:40;1.47;;;1.23;;
12363;SDS011;6246;50.826;4.712;2023-09-30T01:15:07;1.17;;;1.07;;
12363;SDS011;6246;50.826;4.712;2023-09-30T01:17:34;1.00;;;1.00;;
12363;SDS011;6246;50.826;4.712;2023-09-30T01:20:01;2.37;;;1.27;;
12363;SDS011;6246;50.826;4.712;2023-09-30T01:22:31;1.60;;;1.47;;
12363;SDS011;6246;50.826;4.712;2023-09-30T01:24:58;2.70;;;1.43;;
12363;SDS011;6246;50.826;4.712;2023-09-30T01:27:24;3.23;;;1.57;;
12363;SDS011;6246;50.826;4.712;2023-09-30T01:29:50;2.00;;;1.30;;
12363;SDS011;6246;50.826;4.712;2023-09-30T01:32:16;1.30;;;1.20;;
12363;SDS011;6246;50.826;4.712;2023-09-30T01:34:42;2.03;;;1.30;;
12363;SDS011;6246;50.826;4.712;2023-09-30T01:37:09;1.60;;;1.20;;
12363;SDS011;6246;50.826;4.712;2023-09-30T01:39:35;1.33;;;1.00;;
12363;SDS011;6246;50.826;4.712;2023-09-30T01:42:01;2.43;;;1.17;;
12363;SDS011;6246;50.826;4.712;2023-09-30T01:44:27;1.40;;;1.30;;
12363;SDS011;6246;50.826;4.712;2023-09-30T01:46:53;1.17;;;1.07;;
12363;SDS011;6246;50.826;4.712;2023-09-30T01:49:19;1.23;;;1.00;;
12363;SDS011;6246;50.826;4.712;2023-09-30T01:51:49;1.00;;;1.00;;
12363;SDS011;6246;50.826;4.712;2023-09-30T01:54:15;1.53;;;1.20;;
12363;SDS011;6246;50.826;4.712;2023-09-30T01:56:40;1.43;;;1.33;;
12363;SDS011;6246;50.826;4.712;2023-09-30T01:59:06;1.23;;;1.17;;
12363;SDS011;6246;50.826;4.712;2023-09-30T02:01:32;2.17;;;1.20;;
12363;SDS011;6246;50.826;4.712;2023-09-30T02:03:58;1.77;;;1.17;;
12363;SDS011;6246;50.826;4.712;2023-09-30T02:06:25;1.33;;;1.00;;
12363;SDS011;6246;50.826;4.712;2023-09-30T02:08:50;1.10;;;0.83;;
12363;SDS011;6246;50.826;4.712;2023-09-30T02:11:17;1.70;;;1.07;;
12363;SDS011;6246;50.826;4.712;2023-09-30T02:13:43;1.57;;;1.30;;
12363;SDS011;6246;50.826;4.712;2023-09-30T02:16:13;1.43;;;0.97;;
12363;SDS011;6246;50.826;4.712;2023-09-30T02:18:39;1.20;;;1.10;;
12363;SDS011;6246;50.826;4.712;2023-09-30T02:21:09;0.90;;;0.90;;
12363;SDS011;6246;50.826;4.712;2023-09-30T02:23:35;1.00;;;0.90;;
12363;SDS011;6246;50.826;4.712;2023-09-30T02:26:02;1.27;;;1.00;;
12363;SDS011;6246;50.826;4.712;2023-09-30T02:28:28;0.90;;;0.90;;
12363;SDS011;6246;50.826;4.712;2023-09-30T02:30:57;0.70;;;0.70;;
12363;SDS011;6246;50.826;4.712;2023-09-30T02:33:23;1.33;;;1.23;;
12363;SDS011;6246;50.826;4.712;2023-09-30T02:35:51;1.13;;;1.03;;
12363;SDS011;6246;50.826;4.712;2023-09-30T02:38:17;0.83;;;0.83;;
12363;SDS011;6246;50.826;4.712;2023-09-30T02:40:44;1.13;;;1.00;;
12363;SDS011;6246;50.826;4.712;2023-09-30T02:43:11;1.30;;;1.20;;
12363;SDS011;6246;50.826;4.712;2023-09-30T02:45:38;0.90;;;0.90;;
12363;SDS011;6246;50.826;4.712;2023-09-30T02:48:04;2.13;;;1.20;;
12363;SDS011;6246;50.826;4.712;2023-09-30T02:50:31;1.57;;;1.30;;
12363;SDS011;6246;50.826;4.712;2023-09-30T02:52:57;0.83;;;0.83;;
12363;SDS011;6246;50.826;4.712;2023-09-30T02:55:23;1.40;;;1.30;;
12363;SDS011;6246;50.826;4.712;2023-09-30T02:57:49;2.33;;;0.97;;
12363;SDS011;6246;50.826;4.712;2023-09-30T03:00:15;1.30;;;1.10;;
12363;SDS011;6246;50.826;4.712;2023-09-30T03:02:47;1.37;;;1.13;;
12363;SDS011;6246;50.826;4.712;2023-09-30T03:05:13;0.90;;;0.73;;
12363;SDS011;6246;50.826;4.712;2023-09-30T03:07:40;0.80;;;0.80;;
12363;SDS011;6246;50.826;4.712;2023-09-30T03:10:07;1.60;;;1.40;;
12363;SDS011;6246;50.826;4.712;2023-09-30T03:12:34;1.33;;;1.17;;
12363;SDS011;6246;50.826;4.712;2023-09-30T03:15:00;1.53;;;1.20;;
12363;SDS011;6246;50.826;4.712;2023-09-30T03:17:32;0.73;;;0.73;;
12363;SDS011;6246;50.826;4.712;2023-09-30T03:19:58;1.30;;;1.20;;
12363;SDS011;6246;50.826;4.712;2023-09-30T03:22:25;1.03;;;0.90;;
12363;SDS011;6246;50.826;4.712;2023-09-30T03:24:52;2.37;;;1.30;;
12363;SDS011;6246;50.826;4.712;2023-09-30T03:27:19;1.33;;;1.20;;
12363;SDS011;6246;50.826;4.712;2023-09-30T03:29:45;2.37;;;1.10;;
12363;SDS011;6246;50.826;4.712;2023-09-30T03:32:11;1.20;;;0.97;;
12363;SDS011;6246;50.826;4.712;2023-09-30T03:34:37;0.90;;;0.90;;
12363;SDS011;6246;50.826;4.712;2023-09-30T03:37:09;1.10;;;1.07;;
12363;SDS011;6246;50.826;4.712;2023-09-30T03:39:35;1.00;;;1.00;;
12363;SDS011;6246;50.826;4.712;2023-09-30T03:42:01;1.47;;;1.10;;
12363;SDS011;6246;50.826;4.712;2023-09-30T03:44:28;1.10;;;1.00;;
12363;SDS011;6246;50.826;4.712;2023-09-30T03:46:54;0.77;;;0.73;;
12363;SDS011;6246;50.826;4.712;2023-09-30T03:49:22;1.20;;;1.00;;
12363;SDS011;6246;50.826;4.712;2023-09-30T03:51:48;1.53;;;1.03;;
12363;SDS011;6246;50.826;4.712;2023-09-30T03:54:15;1.40;;;1.07;;
12363;SDS011;6246;50.826;4.712;2023-09-30T03:56:43;1.80;;;1.03;;
12363;SDS011;6246;50.826;4.712;2023-09-30T03:59:09;0.73;;;0.73;;
12363;SDS011;6246;50.826;4.712;2023-09-30T04:01:35;1.30;;;1.17;;
12363;SDS011;6246;50.826;4.712;2023-09-30T04:04:05;1.53;;;1.10;;
12363;SDS011;6246;50.826;4.712;2023-09-30T04:06:32;1.40;;;1.30;;
12363;SDS011;6246;50.826;4.712;2023-09-30T04:08:58;1.17;;;1.07;;
12363;SDS011;6246;50.826;4.712;2023-09-30T04:11:25;1.00;;;0.93;;
12363;SDS011;6246;50.826;4.712;2023-09-30T04:13:51;1.30;;;1.20;;
12363;SDS011;6246;50.826;4.712;2023-09-30T04:16:17;1.70;;;1.57;;
12363;SDS011;6246;50.826;4.712;2023-09-30T04:18:44;1.23;;;1.13;;
12363;SDS011;6246;50.826;4.712;2023-09-30T04:21:11;1.50;;;1.40;;
12363;SDS011;6246;50.826;4.712;2023-09-30T04:23:37;2.23;;;1.30;;
12363;SDS011;6246;50.826;4.712;2023-09-30T04:26:03;0.97;;;0.97;;
12363;SDS011;6246;50.826;4.712;2023-09-30T04:28:30;1.23;;;1.13;;
12363;SDS011;6246;50.826;4.712;2023-09-30T04:30:56;1.37;;;1.27;;
12363;SDS011;6246;50.826;4.712;2023-09-30T04:33:23;1.63;;;1.00;;
12363;SDS011;6246;50.826;4.712;2023-09-30T04:35:50;1.50;;;1.30;;
12363;SDS011;6246;50.826;4.712;2023-09-30T04:38:16;1.10;;;1.10;;
12363;SDS011;6246;50.826;4.712;2023-09-30T04:40:42;1.60;;;1.50;;
12363;SDS011;6246;50.826;4.712;2023-09-30T04:43:09;1.37;;;1.27;;
12363;SDS011;6246;50.826;4.712;2023-09-30T04:45:36;0.87;;;0.80;;
12363;SDS011;6246;50.826;4.712;2023-09-30T04:48:02;1.40;;;1.30;;
12363;SDS011;6246;50.826;4.712;2023-09-30T04:50:29;1.37;;;1.27;;
12363;SDS011;6246;50.826;4.712;2023-09-30T04:52:55;1.77;;;1.30;;
12363;SDS011;6246;50.826;4.712;2023-09-30T04:55:23;1.20;;;0.80;;
12363;SDS011;6246;50.826;4.712;2023-09-30T04:57:49;1.30;;;1.20;;
12363;SDS011;6246;50.826;4.712;2023-09-30T05:00:16;1.07;;;0.90;;
12363;SDS011;6246;50.826;4.712;2023-09-30T05:02:44;2.33;;;1.60;;
12363;SDS011;6246;50.826;4.712;2023-09-30T05:05:10;1.50;;;1.40;;
12363;SDS011;6246;50.826;4.712;2023-09-30T05:07:36;1.40;;;1.30;;
12363;SDS011;6246;50.826;4.712;2023-09-30T05:10:03;1.60;;;1.30;;
12363;SDS011;6246;50.826;4.712;2023-09-30T05:12:35;1.13;;;1.03;;
12363;SDS011;6246;50.826;4.712;2023-09-30T05:15:01;2.10;;;1.63;;
12363;SDS011;6246;50.826;4.712;2023-09-30T05:17:28;2.30;;;1.30;;
12363;SDS011;6246;50.826;4.712;2023-09-30T05:19:55;1.60;;;1.37;;
12363;SDS011;6246;50.826;4.712;2023-09-30T05:22:21;1.40;;;1.30;;
12363;SDS011;6246;50.826;4.712;2023-09-30T05:24:52;1.63;;;1.23;;
12363;SDS011;6246;50.826;4.712;2023-09-30T05:27:18;1.23;;;1.13;;
12363;SDS011;6246;50.826;4.712;2023-09-30T05:29:45;1.50;;;1.37;;
12363;SDS011;6246;50.826;4.712;2023-09-30T05:32:11;1.13;;;1.10;;
12363;SDS011;6246;50.826;4.712;2023-09-30T05:34:38;2.10;;;1.30;;
12363;SDS011;6246;50.826;4.712;2023-09-30T05:37:04;1.10;;;1.00;;
12363;SDS011;6246;50.826;4.712;2023-09-30T05:39:30;1.63;;;1.10;;
12363;SDS011;6246;50.826;4.712;2023-09-30T05:41:57;1.53;;;1.37;;
12363;SDS011;6246;50.826;4.712;2023-09-30T05:44:23;1.83;;;1.57;;
12363;SDS011;6246;50.826;4.712;2023-09-30T05:46:51;1.37;;;1.27;;
12363;SDS011;6246;50.826;4.712;2023-09-30T05:49:17;1.40;;;1.30;;
12363;SDS011;6246;50.826;4.712;2023-09-30T05:51:44;2.83;;;1.63;;
12363;SDS011;6246;50.826;4.712;2023-09-30T05:54:11;1.33;;;1.10;;
12363;SDS011;6246;50.826;4.712;2023-09-30T05:56:38;1.37;;;1.13;;
12363;SDS011;6246;50.826;4.712;2023-09-30T05:59:04;1.30;;;1.10;;
12363;SDS011;6246;50.826;4.712;2023-09-30T06:01:31;1.70;;;1.60;;
12363;SDS011;6246;50.826;4.712;2023-09-30T06:03:57;1.47;;;1.20;;
12363;SDS011;6246;50.826;4.712;2023-09-30T06:06:24;2.17;;;1.10;;
12363;SDS011;6246;50.826;4.712;2023-09-30T06:08:51;1.33;;;1.23;;
12363;SDS011;6246;50.826;4.712;2023-09-30T06:11:18;1.67;;;1.57;;
12363;SDS011;6246;50.826;4.712;2023-09-30T06:13:46;1.40;;;1.30;;
12363;SDS011;6246;50.826;4.712;2023-09-30T06:16:12;1.60;;;1.50;;
12363;SDS011;6246;50.826;4.712;2023-09-30T06:18:38;1.60;;;1.50;;
12363;SDS011;6246;50.826;4.712;2023-09-30T06:21:04;1.27;;;1.13;;
12363;SDS011;6246;50.826;4.712;2023-09-30T06:23:31;1.50;;;1.40;;
12363;SDS011;6246;50.826;4.712;2023-09-30T06:25:58;1.40;;;1.30;;
12363;SDS011;6246;50.826;4.712;2023-09-30T06:28:27;1.40;;;1.30;;
12363;SDS011;6246;50.826;4.712;2023-09-30T06:30:56;1.77;;;1.63;;
12363;SDS011;6246;50.826;4.712;2023-09-30T06:33:22;1.50;;;1.20;;
12363;SDS011;6246;50.826;4.712;2023-09-30T06:35:48;1.33;;;1.30;;
12363;SDS011;6246;50.826;4.712;2023-09-30T06:38:18;1.77;;;1.23;;
12363;SDS011;6246;50.826;4.712;2023-09-30T06:40:44;1.70;;;1.60;;
12363;SDS011;6246;50.826;4.712;2023-09-30T06:43:12;3.97;;;1.87;;
12363;SDS011;6246;50.826;4.712;2023-09-30T06:45:40;2.00;;;1.53;;
12363;SDS011;6246;50.826;4.712;2023-09-30T06:48:07;1.90;;;1.40;;
12363;SDS011;6246;50.826;4.712;2023-09-30T06:50:37;1.63;;;1.53;;
12363;SDS011;6246;50.826;4.712;2023-09-30T06:53:03;1.70;;;1.20;;
12363;SDS011;6246;50.826;4.712;2023-09-30T06:55:30;1.40;;;1.30;;
12363;SDS011;6246;50.826;4.712;2023-09-30T06:57:56;2.23;;;1.40;;
12363;SDS011;6246;50.826;4.712;2023-09-30T07:00:23;1.93;;;1.80;;
12363;SDS011;6246;50.826;4.712;2023-09-30T07:02:50;1.67;;;1.47;;
12363;SDS011;6246;50.826;4.712;2023-09-30T07:05:16;1.57;;;1.30;;
12363;SDS011;6246;50.826;4.712;2023-09-30T07:07:42;1.50;;;1.40;;
12363;SDS011;6246;50.826;4.712;2023-09-30T07:10:09;1.63;;;1.50;;
12363;SDS011;6246;50.826;4.712;2023-09-30T07:12:36;1.67;;;1.50;;
12363;SDS011;6246;50.826;4.712;2023-09-30T07:15:02;3.23;;;1.37;;
12363;SDS011;6246;50.826;4.712;2023-09-30T07:17:29;2.37;;;1.60;;
12363;SDS011;6246;50.826;4.712;2023-09-30T07:19:55;1.63;;;1.40;;
12363;SDS011;6246;50.826;4.712;2023-09-30T07:22:22;2.50;;;1.70;;
12363;SDS011;6246;50.826;4.712;2023-09-30T07:24:48;2.17;;;1.33;;
12363;SDS011;6246;50.826;4.712;2023-09-30T07:27:14;1.10;;;1.00;;
12363;SDS011;6246;50.826;4.712;2023-09-30T07:29:40;2.03;;;1.53;;
12363;SDS011;6246;50.826;4.712;2023-09-30T07:32:06;1.20;;;1.10;;
12363;SDS011;6246;50.826;4.712;2023-09-30T07:34:34;1.97;;;1.30;;
12363;SDS011;6246;50.826;4.712;2023-09-30T07:37:00;1.57;;;1.47;;
12363;SDS011;6246;50.826;4.712;2023-09-30T07:39:26;1.40;;;1.30;;
12363;SDS011;6246;50.826;4.712;2023-09-30T07:41:52;1.73;;;0.93;;
12363;SDS011;6246;50.826;4.712;2023-09-30T07:44:18;1.40;;;1.30;;
12363;SDS011;6246;50.826;4.712;2023-09-30T07:46:44;2.20;;;1.63;;
12363;SDS011;6246;50.826;4.712;2023-09-30T07:49:10;2.00;;;1.50;;
12363;SDS011;6246;50.826;4.712;2023-09-30T07:51:36;1.50;;;1.40;;
12363;SDS011;6246;50.826;4.712;2023-09-30T07:54:04;2.70;;;1.53;;
12363;SDS011;6246;50.826;4.712;2023-09-30T07:56:30;1.23;;;1.13;;
12363;SDS011;6246;50.826;4.712;2023-09-30T07:58:57;1.87;;;1.40;;
12363;SDS011;6246;50.826;4.712;2023-09-30T08:01:23;1.80;;;1.63;;
12363;SDS011;6246;50.826;4.712;2023-09-30T08:03:49;2.67;;;1.57;;
12363;SDS011;6246;50.826;4.712;2023-09-30T08:06:15;2.47;;;1.60;;
12363;SDS011;6246;50.826;4.712;2023-09-30T08:08:41;1.63;;;1.40;;
12363;SDS011;6246;50.826;4.712;2023-09-30T08:11:07;2.37;;;1.50;;
12363;SDS011;6246;50.826;4.712;2023-09-30T08:13:33;2.37;;;1.60;;
12363;SDS011;6246;50.826;4.712;2023-09-30T08:15:59;2.07;;;1.70;;
12363;SDS011;6246;50.826;4.712;2023-09-30T08:18:26;4.30;;;1.40;;
12363;SDS011;6246;50.826;4.712;2023-09-30T08:20:52;3.03;;;1.70;;
12363;SDS011;6246;50.826;4.712;2023-09-30T08:23:18;3.50;;;1.80;;
12363;SDS011;6246;50.826;4.712;2023-09-30T08:25:44;3.97;;;1.90;;
12363;SDS011;6246;50.826;4.712;2023-09-30T08:28:10;3.80;;;1.70;;
12363;SDS011;6246;50.826;4.712;2023-09-30T08:30:36;2.50;;;1.57;;
12363;SDS011;6246;50.826;4.712;2023-09-30T08:33:02;3.47;;;2.10;;
12363;SDS011;6246;50.826;4.712;2023-09-30T08:35:29;1.70;;;1.60;;
12363;SDS011;6246;50.826;4.712;2023-09-30T08:37:55;4.10;;;1.90;;
12363;SDS011;6246;50.826;4.712;2023-09-30T08:40:23;1.77;;;1.40;;
12363;SDS011;6246;50.826;4.712;2023-09-30T08:42:50;1.33;;;1.23;;
12363;SDS011;6246;50.826;4.712;2023-09-30T08:45:17;2.07;;;1.73;;
12363;SDS011;6246;50.826;4.712;2023-09-30T08:47:43;1.93;;;1.57;;
12363;SDS011;6246;50.826;4.712;2023-09-30T08:50:09;4.50;;;2.10;;
12363;SDS011;6246;50.826;4.712;2023-09-30T08:52:37;3.93;;;1.37;;
12363;SDS011;6246;50.826;4.712;2023-09-30T08:55:04;2.10;;;1.40;;
12363;SDS011;6246;50.826;4.712;2023-09-30T08:57:30;2.13;;;1.53;;
12363;SDS011;6246;50.826;4.712;2023-09-30T08:59:57;1.83;;;1.57;;
12363;SDS011;6246;50.826;4.712;2023-09-30T09:02:23;4.23;;;1.83;;
12363;SDS011;6246;50.826;4.712;2023-09-30T09:04:49;2.20;;;1.93;;
12363;SDS011;6246;50.826;4.712;2023-09-30T09:07:16;4.57;;;2.10;;
12363;SDS011;6246;50.826;4.712;2023-09-30T09:09:42;5.57;;;2.30;;
12363;SDS011;6246;50.826;4.712;2023-09-30T09:12:28;4.40;;;2.53;;
12363;SDS011;6246;50.826;4.712;2023-09-30T09:14:54;6.30;;;2.43;;
12363;SDS011;6246;50.826;4.712;2023-09-30T09:17:20;5.13;;;2.53;;
12363;SDS011;6246;50.826;4.712;2023-09-30T09:20:08;8.63;;;2.37;;
12363;SDS011;6246;50.826;4.712;2023-09-30T09:22:41;4.80;;;2.23;;
12363;SDS011;6246;50.826;4.712;2023-09-30T09:25:07;5.93;;;2.10;;
12363;SDS011;6246;50.826;4.712;2023-09-30T09:27:34;4.50;;;2.20;;
12363;SDS011;6246;50.826;4.712;2023-09-30T09:30:16;7.07;;;2.77;;
12363;SDS011;6246;50.826;4.712;2023-09-30T09:32:52;6.10;;;2.10;;
12363;SDS011;6246;50.826;4.712;2023-09-30T09:35:22;4.80;;;2.67;;
12363;SDS011;6246;50.826;4.712;2023-09-30T09:38:00;5.13;;;2.77;;
12363;SDS011;6246;50.826;4.712;2023-09-30T09:40:27;4.43;;;2.67;;
12363;SDS011;6246;50.826;4.712;2023-09-30T09:42:54;3.83;;;2.43;;
12363;SDS011;6246;50.826;4.712;2023-09-30T09:45:21;4.63;;;2.50;;
12363;SDS011;6246;50.826;4.712;2023-09-30T09:47:50;7.07;;;2.90;;
12363;SDS011;6246;50.826;4.712;2023-09-30T09:50:17;6.40;;;2.60;;
12363;SDS011;6246;50.826;4.712;2023-09-30T09:52:44;5.13;;;2.30;;
12363;SDS011;6246;50.826;4.712;2023-09-30T09:55:11;5.87;;;2.80;;
12363;SDS011;6246;50.826;4.712;2023-09-30T09:57:37;7.43;;;2.63;;
12363;SDS011;6246;50.826;4.712;2023-09-30T10:00:03;5.93;;;2.30;;
12363;SDS011;6246;50.826;4.712;2023-09-30T10:02:34;7.97;;;2.67;;
12363;SDS011;6246;50.826;4.712;2023-09-30T10:05:02;4.40;;;2.45;;
12363;SDS011;6246;50.826;4.712;2023-09-30T10:07:30;4.25;;;2.53;;
12363;SDS011;6246;50.826;4.712;2023-09-30T10:09:59;2.60;;;2.10;;
12363;SDS011;6246;50.826;4.712;2023-09-30T10:12:26;4.03;;;2.57;;
12363;SDS011;6246;50.826;4.712;2023-09-30T10:14:52;5.30;;;2.67;;
12363;SDS011;6246;50.826;4.712;2023-09-30T10:17:18;4.25;;;2.58;;
12363;SDS011;6246;50.826;4.712;2023-09-30T10:20:03;4.63;;;2.30;;
12363;SDS011;6246;50.826;4.712;2023-09-30T10:22:31;6.63;;;2.80;;
12363;SDS011;6246;50.826;4.712;2023-09-30T10:24:58;4.28;;;2.53;;
12363;SDS011;6246;50.826;4.712;2023-09-30T10:35:19;2.95;;;2.30;;
12363;SDS011;6246;50.826;4.712;2023-09-30T10:37:45;4.53;;;2.47;;
12363;SDS011;6246;50.826;4.712;2023-09-30T10:40:27;4.15;;;2.22;;
12363;SDS011;6246;50.826;4.712;2023-09-30T10:42:54;4.28;;;2.58;;
12363;SDS011;6246;50.826;4.712;2023-09-30T10:50:53;7.20;;;3.10;;
12363;SDS011;6246;50.826;4.712;2023-09-30T10:53:20;11.60;;;2.80;;
12363;SDS011;6246;50.826;4.712;2023-09-30T10:55:49;5.15;;;3.03;;
12363;SDS011;6246;50.826;4.712;2023-09-30T10:58:19;5.25;;;2.60;;
12363;SDS011;6246;50.826;4.712;2023-09-30T11:00:52;5.07;;;2.60;;
12363;SDS011;6246;50.826;4.712;2023-09-30T11:03:21;4.35;;;2.28;;
12363;SDS011;6246;50.826;4.712;2023-09-30T11:05:47;5.60;;;2.85;;
12363;SDS011;6246;50.826;4.712;2023-09-30T11:08:14;3.63;;;2.28;;
12363;SDS011;6246;50.826;4.712;2023-09-30T11:10:47;8.48;;;3.25;;
12363;SDS011;6246;50.826;4.712;2023-09-30T11:13:13;6.10;;;2.67;;
12363;SDS011;6246;50.826;4.712;2023-09-30T11:15:40;3.80;;;2.65;;
12363;SDS011;6246;50.826;4.712;2023-09-30T11:18:16;4.43;;;2.55;;
12363;SDS011;6246;50.826;4.712;2023-09-30T11:20:43;6.05;;;2.67;;
12363;SDS011;6246;50.826;4.712;2023-09-30T11:23:09;6.20;;;2.33;;
12363;SDS011;6246;50.826;4.712;2023-09-30T11:25:36;3.42;;;1.98;;
12363;SDS011;6246;50.826;4.712;2023-09-30T11:28:15;5.47;;;2.70;;
12363;SDS011;6246;50.826;4.712;2023-09-30T11:30:54;5.53;;;2.50;;
12363;SDS011;6246;50.826;4.712;2023-09-30T11:33:20;3.08;;;2.30;;
12363;SDS011;6246;50.826;4.712;2023-09-30T11:38:26;3.30;;;2.38;;
12363;SDS011;6246;50.826;4.712;2023-09-30T11:41:02;3.08;;;2.38;;
12363;SDS011;6246;50.826;4.712;2023-09-30T11:43:34;4.97;;;2.50;;
12363;SDS011;6246;50.826;4.712;2023-09-30T11:46:18;4.75;;;2.33;;
12363;SDS011;6246;50.826;4.712;2023-09-30T11:48:55;9.70;;;3.25;;
12363;SDS011;6246;50.826;4.712;2023-09-30T11:51:22;7.10;;;2.60;;
12363;SDS011;6246;50.826;4.712;2023-09-30T11:53:52;9.10;;;2.45;;
12363;SDS011;6246;50.826;4.712;2023-09-30T11:56:19;6.90;;;3.20;;
12363;SDS011;6246;50.826;4.712;2023-09-30T11:58:47;12.23;;;3.13;;
12363;SDS011;6246;50.826;4.712;2023-09-30T12:01:14;15.00;;;3.30;;
12363;SDS011;6246;50.826;4.712;2023-09-30T12:03:41;21.45;;;3.83;;
12363;SDS011;6246;50.826;4.712;2023-09-30T12:06:07;14.70;;;3.13;;
12363;SDS011;6246;50.826;4.712;2023-09-30T12:08:35;18.67;;;3.70;;
12363;SDS011;6246;50.826;4.712;2023-09-30T12:11:03;9.98;;;3.15;;
12363;SDS011;6246;50.826;4.712;2023-09-30T12:13:29;15.55;;;3.42;;
12363;SDS011;6246;50.826;4.712;2023-09-30T12:15:59;12.70;;;3.38;;
12363;SDS011;6246;50.826;4.712;2023-09-30T12:18:24;11.85;;;3.20;;
12363;SDS011;6246;50.826;4.712;2023-09-30T12:20:51;14.73;;;3.33;;
12363;SDS011;6246;50.826;4.712;2023-09-30T12:23:20;10.45;;;3.13;;
12363;SDS011;6246;50.826;4.712;2023-09-30T12:25:47;9.40;;;3.42;;
12363;SDS011;6246;50.826;4.712;2023-09-30T12:28:13;14.00;;;3.50;;
12363;SDS011;6246;50.826;4.712;2023-09-30T12:30:40;13.50;;;3.47;;
12363;SDS011;6246;50.826;4.712;2023-09-30T12:33:07;10.63;;;3.15;;
12363;SDS011;6246;50.826;4.712;2023-09-30T12:35:33;7.30;;;2.88;;
12363;SDS011;6246;50.826;4.712;2023-09-30T12:37:59;9.32;;;2.72;;
12363;SDS011;6246;50.826;4.712;2023-09-30T12:40:25;10.15;;;2.85;;
12363;SDS011;6246;50.826;4.712;2023-09-30T12:42:52;9.27;;;3.55;;
12363;SDS011;6246;50.826;4.712;2023-09-30T12:45:18;8.18;;;2.78;;
12363;SDS011;6246;50.826;4.712;2023-09-30T12:47:44;4.57;;;2.55;;
12363;SDS011;6246;50.826;4.712;2023-09-30T12:50:12;6.72;;;2.45;;
12363;SDS011;6246;50.826;4.712;2023-09-30T12:52:38;8.60;;;3.00;;
12363;SDS011;6246;50.826;4.712;2023-09-30T12:55:04;8.93;;;2.85;;
12363;SDS011;6246;50.826;4.712;2023-09-30T12:57:31;10.48;;;2.90;;
12363;SDS011;6246;50.826;4.712;2023-09-30T12:59:57;8.27;;;3.05;;
12363;SDS011;6246;50.826;4.712;2023-09-30T13:02:23;7.60;;;3.25;;
12363;SDS011;6246;50.826;4.712;2023-09-30T13:04:49;4.88;;;2.55;;
12363;SDS011;6246;50.826;4.712;2023-09-30T13:07:15;5.70;;;2.17;;
12363;SDS011;6246;50.826;4.712;2023-09-30T13:09:41;6.10;;;2.35;;
12363;SDS011;6246;50.826;4.712;2023-09-30T13:12:07;4.95;;;2.33;;
12363;SDS011;6246;50.826;4.712;2023-09-30T13:14:34;4.13;;;2.55;;
12363;SDS011;6246;50.826;4.712;2023-09-30T13:17:00;5.90;;;2.85;;
12363;SDS011;6246;50.826;4.712;2023-09-30T13:19:26;3.78;;;2.63;;
12363;SDS011;6246;50.826;4.712;2023-09-30T13:21:52;5.22;;;2.42;;
12363;SDS011;6246;50.826;4.712;2023-09-30T13:24:19;6.13;;;2.40;;
12363;SDS011;6246;50.826;4.712;2023-09-30T13:26:45;3.55;;;2.15;;
12363;SDS011;6246;50.826;4.712;2023-09-30T13:29:11;4.25;;;2.35;;
12363;SDS011;6246;50.826;4.712;2023-09-30T13:31:38;9.40;;;2.67;;
12363;SDS011;6246;50.826;4.712;2023-09-30T13:34:05;6.15;;;2.45;;
12363;SDS011;6246;50.826;4.712;2023-09-30T13:36:31;6.47;;;2.50;;
12363;SDS011;6246;50.826;4.712;2023-09-30T13:38:58;4.63;;;1.92;;
12363;SDS011;6246;50.826;4.712;2023-09-30T13:41:24;6.38;;;2.92;;
12363;SDS011;6246;50.826;4.712;2023-09-30T13:43:50;3.97;;;2.38;;
12363;SDS011;6246;50.826;4.712;2023-09-30T13:46:16;5.03;;;2.20;;
12363;SDS011;6246;50.826;4.712;2023-09-30T13:48:44;4.43;;;2.03;;
12363;SDS011;6246;50.826;4.712;2023-09-30T13:51:11;4.35;;;2.33;;
12363;SDS011;6246;50.826;4.712;2023-09-30T13:53:37;4.68;;;2.45;;
12363;SDS011;6246;50.826;4.712;2023-09-30T13:56:03;3.03;;;1.73;;
12363;SDS011;6246;50.826;4.712;2023-09-30T13:58:29;4.70;;;2.17;;
12363;SDS011;6246;50.826;4.712;2023-09-30T14:00:56;4.32;;;2.13;;
12363;SDS011;6246;50.826;4.712;2023-09-30T14:03:22;5.20;;;2.67;;
12363;SDS011;6246;50.826;4.712;2023-09-30T14:05:51;2.72;;;2.30;;
12363;SDS011;6246;50.826;4.712;2023-09-30T14:08:18;5.35;;;1.85;;
12363;SDS011;6246;50.826;4.712;2023-09-30T14:10:44;5.07;;;2.20;;
12363;SDS011;6246;50.826;4.712;2023-09-30T14:13:10;4.20;;;2.10;;
12363;SDS011;6246;50.826;4.712;2023-09-30T14:15:37;4.35;;;2.55;;
12363;SDS011;6246;50.826;4.712;2023-09-30T14:18:06;10.07;;;2.33;;
12363;SDS011;6246;50.826;4.712;2023-09-30T14:20:33;4.03;;;1.98;;
12363;SDS011;6246;50.826;4.712;2023-09-30T14:22:59;4.25;;;2.30;;
12363;SDS011;6246;50.826;4.712;2023-09-30T14:25:29;4.45;;;2.25;;
12363;SDS011;6246;50.826;4.712;2023-09-30T14:27:55;3.53;;;1.85;;
12363;SDS011;6246;50.826;4.712;2023-09-30T14:30:24;5.95;;;2.45;;
12363;SDS011;6246;50.826;4.712;2023-09-30T14:32:50;3.80;;;2.17;;
12363;SDS011;6246;50.826;4.712;2023-09-30T14:35:17;7.53;;;2.20;;
12363;SDS011;6246;50.826;4.712;2023-09-30T14:37:43;2.63;;;2.20;;
12363;SDS011;6246;50.826;4.712;2023-09-30T14:40:09;2.97;;;1.85;;
12363;SDS011;6246;50.826;4.712;2023-09-30T14:42:38;3.17;;;1.90;;
12363;SDS011;6246;50.826;4.712;2023-09-30T14:45:07;2.80;;;2.00;;
12363;SDS011;6246;50.826;4.712;2023-09-30T14:47:33;3.78;;;2.10;;
12363;SDS011;6246;50.826;4.712;2023-09-30T14:49:59;2.42;;;1.80;;
12363;SDS011;6246;50.826;4.712;2023-09-30T14:52:27;3.63;;;2.00;;
12363;SDS011;6246;50.826;4.712;2023-09-30T14:54:53;2.55;;;1.92;;
12363;SDS011;6246;50.826;4.712;2023-09-30T14:57:20;3.85;;;2.03;;
12363;SDS011;6246;50.826;4.712;2023-09-30T14:59:47;2.63;;;1.80;;
12363;SDS011;6246;50.826;4.712;2023-09-30T15:02:13;2.95;;;1.95;;
12363;SDS011;6246;50.826;4.712;2023-09-30T15:04:40;2.83;;;1.83;;
12363;SDS011;6246;50.826;4.712;2023-09-30T15:07:06;3.30;;;2.10;;
12363;SDS011;6246;50.826;4.712;2023-09-30T15:09:32;3.53;;;2.03;;
12363;SDS011;6246;50.826;4.712;2023-09-30T15:11:58;3.47;;;2.10;;
12363;SDS011;6246;50.826;4.712;2023-09-30T15:14:24;2.97;;;2.25;;
12363;SDS011;6246;50.826;4.712;2023-09-30T15:16:50;4.47;;;2.10;;